»·PEaware :: AMMO20 KPDX-KYKM

AMMO20 :: KPDX-KYKM

FLIGHT INFORMATION

Flight Status: Arrived
Operator: Unknown
More flights by this operator :: More flights under this callsign
Pilot: Jon H. (22211)
Aircraft: BEECH AIRCRAFT T-6A TEXAN
(TEX2)
More flights by this aircraft type
Origin: KPDX Portland Intl
United States
Destination: KYKM Yakima Air Term/Mcallister
United States
More flights between these airports :: More routes between these airports
Route: +PTLD1 BTG V448 YKM
File this flight plan on PilotEdge
Remarks: LOC rwy 27 PT XOWLO
Altitude:
(Current/Filed)
15,000ft
Speed:
(Current/Filed)
270kts
Departed: 19-Jun-20 11:26 AM
Arrived: 19-Jun-20 12:04 PM
Distance/Time
Traveled:
104nm/0:38
Distance/Time
To Go:
Arrived

Flight Plot

Page will automatically refresh every two minutes.


Map Options




Map Legend


Flown Route
Filed Route
Departure Airport
Arrival Airport
Navaid (VOR, NDB)
Fix

Horizontal Profiles

Position Reports

Time Latitude Longitude Heading Altitude Ground
Speed
19-Jun-20 11:12 45.587866 -122.594809 11 21ft 0kts
19-Jun-20 11:13 45.587866 -122.594809 11 21ft 0kts
19-Jun-20 11:14 45.587866 -122.594809 11 21ft 0kts
19-Jun-20 11:15 45.587866 -122.594809 11 21ft 0kts
19-Jun-20 11:16 45.587866 -122.594809 11 21ft 0kts
19-Jun-20 11:17 45.587866 -122.594809 11 21ft 0kts
19-Jun-20 11:18 45.587866 -122.594809 11 21ft 0kts
19-Jun-20 11:19 45.587866 -122.594809 11 21ft 0kts
19-Jun-20 11:20 45.587910 -122.594956 214 21ft 9kts
19-Jun-20 11:21 45.588170 -122.598165 303 20ft 19kts
19-Jun-20 11:22 45.590088 -122.603030 316 21ft 5kts
19-Jun-20 11:23 45.593531 -122.598767 37 24ft 12kts
19-Jun-20 11:24 45.594447 -122.597507 43 24ft 0kts
19-Jun-20 11:25 45.593821 -122.593122 118 21ft 72kts
19-Jun-20 11:26 45.591804 -122.535343 74 2440ft 187kts
19-Jun-20 11:27 45.623877 -122.516756 328 5964ft 164kts
19-Jun-20 11:28 45.646977 -122.455366 36 9179ft 195kts
19-Jun-20 11:29 45.697624 -122.422281 24 12578ft 208kts
19-Jun-20 11:30 45.752532 -122.385166 26 15005ft 254kts
19-Jun-20 11:31 45.823428 -122.337072 26 14970ft 297kts
19-Jun-20 11:32 45.882748 -122.257611 54 15039ft 297kts
19-Jun-20 11:33 45.929547 -122.159129 64 14986ft 305kts
19-Jun-20 11:34 45.963803 -122.047936 69 15045ft 297kts
19-Jun-20 11:35 46.004206 -121.944172 54 14914ft 301kts
19-Jun-20 11:36 46.048792 -121.842530 60 14985ft 298kts
19-Jun-20 11:37 46.088733 -121.737501 62 14923ft 302kts
19-Jun-20 11:38 46.129917 -121.632631 58 14885ft 301kts
19-Jun-20 11:39 46.168695 -121.526200 63 14867ft 300kts
19-Jun-20 11:40 46.212139 -121.423552 58 14821ft 298kts
19-Jun-20 11:41 46.257482 -121.323487 57 14946ft 299kts
19-Jun-20 11:42 46.295858 -121.217809 67 15105ft 297kts
19-Jun-20 11:43 46.329338 -121.106508 60 14487ft 314kts
19-Jun-20 11:44 46.375778 -120.998728 61 13143ft 317kts
19-Jun-20 11:45 46.416258 -120.883671 65 11116ft 317kts
19-Jun-20 11:46 46.452349 -120.774083 55 10863ft 294kts
19-Jun-20 11:47 46.492117 -120.679336 61 9690ft 272kts
19-Jun-20 11:48 46.523713 -120.581998 71 8438ft 253kts
19-Jun-20 11:49 46.553277 -120.498052 60 8528ft 227kts
19-Jun-20 11:50 46.568951 -120.418506 114 8346ft 195kts
19-Jun-20 11:51 46.544410 -120.348943 132 7787ft 203kts
19-Jun-20 11:52 46.505886 -120.288102 112 6958ft 209kts
19-Jun-20 11:53 46.472854 -120.224381 168 6046ft 201kts
19-Jun-20 11:54 46.444610 -120.171687 63 5555ft 188kts
19-Jun-20 11:55 46.474952 -120.182756 288 4951ft 168kts
19-Jun-20 11:56 46.493396 -120.244552 292 4122ft 165kts
19-Jun-20 11:57 46.507460 -120.301353 284 3654ft 137kts
19-Jun-20 11:59 46.521353 -120.346281 288 2889ft 105kts
19-Jun-20 12:00 46.532680 -120.389083 278 2533ft 122kts
19-Jun-20 12:01 46.542967 -120.439323 285 2347ft 128kts
19-Jun-20 12:02 46.554977 -120.487074 284 1698ft 122kts
19-Jun-20 12:03 46.565652 -120.531637 284 1056ft 94kts
19-Jun-20 12:04 46.568372 -120.539461 28 1063ft 0kts
19-Jun-20 12:05 46.568372 -120.539461 28 1063ft 0kts

Navigation Log

Ident Type
Flight plan parsing failed, navigation log unavailable